createdAt,value
2023-02-13T00:00:29.141Z,103310.16
2023-02-13T00:02:56.984Z,103321.66
2023-02-13T00:05:24.876Z,103324.31
2023-02-13T00:07:52.738Z,103325.22
2023-02-13T00:10:20.745Z,103327.84
2023-02-13T00:12:48.612Z,103338.50
2023-02-13T00:15:16.499Z,103334.06
2023-02-13T00:17:45.752Z,103321.66
2023-02-13T00:20:14.041Z,103321.63
2023-02-13T00:22:41.990Z,103317.22
2023-02-13T00:25:13.889Z,103316.34
2023-02-13T00:27:41.792Z,103311.91
2023-02-13T00:30:10.546Z,103315.44
2023-02-13T00:32:38.403Z,103303.06
2023-02-13T00:35:08.139Z,103295.97
2023-02-13T00:37:36.029Z,103302.16
2023-02-13T00:40:03.861Z,103299.50
2023-02-13T00:42:31.713Z,103303.06
2023-02-13T00:44:59.694Z,103303.03
2023-02-13T00:47:27.606Z,103306.56
2023-02-13T00:49:55.524Z,103307.41
2023-02-13T00:52:24.833Z,103304.78
2023-02-13T00:54:52.691Z,103304.75
2023-02-13T00:57:20.513Z,103299.44
2023-02-13T00:59:49.696Z,103300.34
2023-02-13T01:02:18.415Z,103297.69
2023-02-13T01:04:46.334Z,103287.06
2023-02-13T01:07:15.822Z,103284.41
2023-02-13T01:09:45.965Z,103290.59
2023-02-13T01:12:13.857Z,103285.25
2023-02-13T01:14:41.743Z,103279.09
2023-02-13T01:17:09.606Z,103284.41
2023-02-13T01:19:37.483Z,103280.00
2023-02-13T01:22:05.384Z,103281.72
2023-02-13T01:24:34.138Z,103274.69
2023-02-13T01:27:03.359Z,103267.59
2023-02-13T01:29:31.256Z,103279.97
2023-02-13T01:31:59.177Z,103266.69
2023-02-13T01:34:27.083Z,103277.28
2023-02-13T01:36:54.970Z,103280.84
2023-02-13T01:39:22.916Z,103279.97
2023-02-13T01:41:50.983Z,103283.50
2023-02-13T01:44:54.734Z,103277.31
2023-02-13T01:47:26.825Z,103281.69
2023-02-13T01:50:00.766Z,103270.16
2023-02-13T01:52:28.683Z,103283.47
2023-02-13T01:54:56.539Z,103289.63
2023-02-13T01:57:24.840Z,103279.91
2023-02-13T01:59:55.301Z,103291.44
2023-02-13T02:02:23.277Z,103287.91
2023-02-13T02:04:51.218Z,103287.91
2023-02-13T02:07:20.318Z,103292.34
2023-02-13T02:09:48.200Z,103287.03
2023-02-13T02:12:21.232Z,103288.78
2023-02-13T02:14:49.105Z,103279.06
2023-02-13T02:17:18.397Z,103283.47
2023-02-13T02:19:50.128Z,103270.16
2023-02-13T02:22:36.230Z,103285.22
2023-02-13T02:25:39.690Z,103284.34
2023-02-13T02:28:17.993Z,103279.03
2023-02-13T02:31:12.687Z,103270.19
2023-02-13T02:33:49.667Z,103275.47
2023-02-13T02:36:24.139Z,103273.72
2023-02-13T02:39:04.886Z,103259.59
2023-02-13T02:41:45.208Z,103257.84
2023-02-13T02:44:27.484Z,103256.94
2023-02-13T02:47:17.558Z,103251.69
2023-02-13T02:50:02.173Z,103249.94
2023-02-13T02:52:40.540Z,103246.38
2023-02-13T02:55:11.657Z,103249.94
2023-02-13T02:57:58.848Z,103236.66
2023-02-13T03:00:44.825Z,103248.16
2023-02-13T03:03:32.421Z,103237.53
2023-02-13T03:06:14.233Z,103227.84
2023-02-13T03:09:06.058Z,103233.16
2023-02-13T03:11:51.305Z,103227.84
2023-02-13T03:14:20.827Z,103219.88
2023-02-13T03:17:06.124Z,103216.34
2023-02-13T03:20:02.548Z,103209.25
2023-02-13T03:22:38.252Z,103218.97
2023-02-13T03:25:12.128Z,103203.94
2023-02-13T03:28:02.733Z,103208.34
2023-02-13T03:30:35.830Z,103190.66
2023-02-13T03:33:10.683Z,103213.66
2023-02-13T03:35:57.813Z,103221.59
2023-02-13T03:38:29.217Z,103221.63
2023-02-13T03:41:16.551Z,103209.22
2023-02-13T03:43:48.659Z,103208.31
2023-02-13T03:46:16.855Z,103210.09
2023-02-13T03:49:01.924Z,103212.75
2023-02-13T03:51:32.216Z,103210.09
2023-02-13T03:54:02.431Z,103210.06
2023-02-13T03:56:47.589Z,103208.31
2023-02-13T03:59:19.929Z,103201.22
2023-02-13T04:01:51.693Z,103209.16
2023-02-13T04:04:26.879Z,103203.88
2023-02-13T04:06:56.651Z,103195.91
2023-02-13T04:09:26.029Z,103188.00
2023-02-13T04:11:56.881Z,103171.16
2023-02-13T04:14:26.512Z,103189.75
2023-02-13T04:16:55.763Z,103176.47
2023-02-13T04:19:23.729Z,103182.69
2023-02-13T04:21:56.295Z,103178.28
2023-02-13T04:24:25.788Z,103174.75
2023-02-13T04:26:53.682Z,103176.53
2023-02-13T04:29:22.133Z,103168.53
2023-02-13T04:31:50.166Z,103176.53
2023-02-13T04:34:18.175Z,103189.81
2023-02-13T04:36:46.044Z,103188.00
2023-02-13T04:39:14.057Z,103194.22
2023-02-13T04:41:43.260Z,103203.03
2023-02-13T04:44:11.145Z,103203.94
2023-02-13T04:46:39.018Z,103196.88
2023-02-13T04:49:06.918Z,103197.78
2023-02-13T04:51:34.813Z,103194.22
2023-02-13T04:54:02.672Z,103190.69
2023-02-13T04:56:30.575Z,103197.78
2023-02-13T04:58:59.841Z,103192.47
2023-02-13T05:01:27.833Z,103195.97
2023-02-13T05:03:55.771Z,103196.00
2023-02-13T05:06:23.647Z,103195.97
2023-02-13T05:08:51.498Z,103194.22
2023-02-13T05:11:19.354Z,103180.03
2023-02-13T05:13:50.254Z,103154.41
2023-02-13T05:16:19.523Z,103181.84
2023-02-13T05:18:47.383Z,103185.38
2023-02-13T05:21:32.700Z,103175.66
2023-02-13T05:24:01.306Z,103178.31
2023-02-13T05:26:29.210Z,103174.78
2023-02-13T05:29:14.729Z,103174.78
2023-02-13T05:31:44.106Z,103180.97
2023-02-13T05:34:12.024Z,103185.38
2023-02-13T05:36:40.010Z,103174.75
2023-02-13T05:39:10.963Z,103173.88
2023-02-13T05:41:38.866Z,103168.59
2023-02-13T05:44:06.788Z,103167.69
2023-02-13T05:46:34.765Z,103159.72
2023-02-13T05:49:04.932Z,103167.72
2023-02-13T05:51:32.867Z,103165.91
2023-02-13T05:54:00.762Z,103179.19
2023-02-13T05:56:28.706Z,103180.94
2023-02-13T05:58:57.152Z,103198.63
2023-02-13T06:01:25.180Z,103202.16
2023-02-13T06:03:53.144Z,103200.41
2023-02-13T06:06:22.818Z,103195.13
2023-02-13T06:08:50.739Z,103195.09
2023-02-13T06:11:19.857Z,103193.38
2023-02-13T06:13:47.838Z,103198.66
2023-02-13T06:16:15.762Z,103197.75
2023-02-13T06:18:43.649Z,103200.41
2023-02-13T06:21:11.725Z,103196.00
2023-02-13T06:23:41.046Z,103193.34
2023-02-13T06:26:09.500Z,103196.88
2023-02-13T06:28:37.501Z,103188.03
2023-02-13T06:31:05.760Z,103192.44
2023-02-13T06:33:33.681Z,103194.19
2023-02-13T06:36:01.593Z,103188.88
2023-02-13T06:38:29.474Z,103201.25
2023-02-13T06:41:00.928Z,103197.72
2023-02-13T06:43:28.972Z,103191.53
2023-02-13T06:45:56.876Z,103186.22
2023-02-13T06:48:24.745Z,103187.13
2023-02-13T06:50:52.736Z,103189.78
2023-02-13T06:53:24.607Z,103195.94
2023-02-13T06:55:53.695Z,103210.06
2023-02-13T06:58:23.163Z,103207.44
2023-02-13T07:00:51.188Z,103203.03
2023-02-13T07:03:19.080Z,103203.03
2023-02-13T07:05:46.982Z,103205.69
2023-02-13T07:08:14.896Z,103212.75
2023-02-13T07:10:42.881Z,103211.84
2023-02-13T07:13:11.070Z,103210.97
2023-02-13T07:15:40.428Z,103212.72
2023-02-13T07:18:08.356Z,103209.16
2023-02-13T07:20:36.244Z,103213.59
2023-02-13T07:23:05.060Z,103225.03
2023-02-13T07:25:33.102Z,103220.59
2023-02-13T07:28:02.764Z,103231.16
2023-02-13T07:30:31.378Z,103230.25
2023-02-13T07:33:01.969Z,103231.13
2023-02-13T07:35:29.907Z,103216.91
2023-02-13T07:37:57.852Z,103225.72
2023-02-13T07:40:25.726Z,103211.59
2023-02-13T07:42:53.594Z,103215.97
2023-02-13T07:45:21.514Z,103209.78
2023-02-13T07:47:49.448Z,103210.66
2023-02-13T07:50:19.167Z,103208.84
2023-02-13T07:52:56.502Z,103206.22
2023-02-13T07:55:24.429Z,103208.88
2023-02-13T07:57:52.296Z,103205.34
2023-02-13T08:00:21.261Z,103218.59
2023-02-13T08:02:49.408Z,103210.66
2023-02-13T08:05:18.755Z,103216.81
2023-02-13T08:07:46.653Z,103205.34
2023-02-13T08:10:32.804Z,103210.66
2023-02-13T08:13:00.802Z,103192.09
2023-02-13T08:15:28.752Z,103200.16
2023-02-13T08:17:56.624Z,103212.59
2023-02-13T08:20:26.152Z,103208.19
2023-02-13T08:22:54.046Z,103202.94
2023-02-13T08:25:21.938Z,103206.50
2023-02-13T08:27:50.154Z,103199.41
2023-02-13T08:30:20.149Z,103212.72
2023-02-13T08:32:54.237Z,103177.34
2023-02-13T08:35:22.941Z,103216.31
2023-02-13T08:37:52.272Z,103213.69
2023-02-13T08:40:20.357Z,103216.34
2023-02-13T08:42:49.502Z,103211.94
2023-02-13T08:45:17.584Z,103212.84
2023-02-13T08:47:45.510Z,103213.72
2023-02-13T08:50:13.556Z,103196.94
2023-02-13T08:52:41.445Z,103210.19
2023-02-13T08:55:10.923Z,103191.63
2023-02-13T08:57:38.884Z,103214.66
2023-02-13T09:00:08.262Z,103215.53
2023-02-13T09:02:36.200Z,103208.47
2023-02-13T09:05:04.369Z,103189.88
2023-02-13T09:07:32.372Z,103193.41
2023-02-13T09:10:00.275Z,103188.06
2023-02-13T09:12:29.753Z,103186.28
2023-02-13T09:14:57.671Z,103190.72
2023-02-13T09:17:25.745Z,103187.13
2023-02-13T09:19:53.716Z,103188.91
2023-02-13T09:22:21.678Z,103185.31
2023-02-13T09:24:49.883Z,103177.34
2023-02-13T09:27:17.906Z,103149.91
2023-02-13T09:29:47.387Z,103130.44
2023-02-13T09:32:16.081Z,103171.09
2023-02-13T09:34:44.040Z,103177.25
2023-02-13T09:37:11.936Z,103172.84
2023-02-13T09:39:39.978Z,103186.97
2023-02-13T09:42:09.070Z,103188.72
2023-02-13T09:44:39.515Z,103165.69
2023-02-13T09:47:13.189Z,103174.47
2023-02-13T09:49:42.486Z,103199.25
2023-02-13T09:52:10.378Z,103200.97
2023-02-13T09:54:38.280Z,103201.81
2023-02-13T09:57:09.317Z,103189.38
2023-02-13T09:59:45.032Z,103200.81
2023-02-13T10:02:24.094Z,103182.19
2023-02-13T10:04:58.160Z,103213.19
2023-02-13T10:07:28.390Z,103204.25
2023-02-13T10:09:59.014Z,103200.66
2023-02-13T10:12:32.007Z,103205.06
2023-02-13T10:15:05.757Z,103216.56
2023-02-13T10:17:36.576Z,103217.38
2023-02-13T10:20:08.446Z,103177.59
2023-02-13T10:22:38.761Z,103213.63
2023-02-13T10:25:09.427Z,103213.56
2023-02-13T10:27:39.718Z,103225.91
2023-02-13T10:30:12.886Z,103224.91
2023-02-13T10:32:49.008Z,103227.44
2023-02-13T10:35:23.495Z,103206.16
2023-02-13T10:37:53.343Z,103235.19
2023-02-13T10:40:21.592Z,103220.91
2023-02-13T10:42:54.015Z,103233.22
2023-02-13T10:45:46.948Z,103222.25
2023-02-13T10:48:32.644Z,103206.19
2023-02-13T10:51:02.899Z,103214.91
2023-02-13T10:53:36.959Z,103200.66
2023-02-13T10:56:19.716Z,103221.84
2023-02-13T10:58:55.394Z,103210.25
2023-02-13T11:01:25.612Z,103214.53
2023-02-13T11:04:07.037Z,103184.91
2023-02-13T11:06:36.046Z,103211.94
2023-02-13T11:09:04.109Z,103212.31
2023-02-13T11:11:33.165Z,103208.69
2023-02-13T11:14:10.026Z,103203.84
2023-02-13T11:16:50.709Z,103193.47
2023-02-13T11:19:21.496Z,103166.22
2023-02-13T11:21:56.864Z,103192.09
2023-02-13T11:24:25.585Z,103173.88
2023-02-13T11:26:55.166Z,103138.19
2023-02-13T11:29:25.536Z,103172.00
2023-02-13T11:32:07.427Z,103167.91
2023-02-13T11:34:36.819Z,103164.91
2023-02-13T11:37:25.441Z,103163.50
2023-02-13T11:39:54.409Z,103079.22
2023-02-13T11:42:26.304Z,103130.75
2023-02-13T11:44:55.800Z,103132.06
2023-02-13T11:47:35.685Z,103150.31
2023-02-13T11:50:05.825Z,103149.94
2023-02-13T11:52:36.808Z,103142.19
2023-02-13T11:55:06.045Z,103156.31
2023-02-13T11:57:34.625Z,103139.28
2023-02-13T12:00:04.001Z,103130.09
2023-02-13T12:02:32.646Z,103128.84
2023-02-13T12:07:56.519Z,103119.59
2023-02-13T12:10:25.302Z,103126.84
2023-02-13T12:12:55.704Z,103082.81
2023-02-13T12:15:25.437Z,103099.56
2023-02-13T12:18:00.357Z,103100.47
2023-02-13T12:20:28.652Z,103104.03
2023-02-13T12:23:02.505Z,103104.00
2023-02-13T12:25:40.657Z,103089.00
2023-02-13T12:28:14.910Z,103100.28
2023-02-13T12:31:11.852Z,103100.47
2023-02-13T12:33:55.204Z,103104.84
2023-02-13T12:36:23.330Z,103086.00
2023-02-13T12:39:01.734Z,103078.44
2023-02-13T12:41:31.693Z,103086.59
2023-02-13T12:44:29.261Z,103086.44
2023-02-13T12:47:03.161Z,103080.81
2023-02-13T12:49:49.862Z,103068.06
2023-02-13T12:52:31.861Z,103076.31
2023-02-13T12:55:12.609Z,103080.25
2023-02-13T12:57:46.732Z,103082.16
2023-02-13T13:00:26.566Z,103072.78
2023-02-13T13:03:27.310Z,103077.44
2023-02-13T13:06:11.749Z,103066.75
2023-02-13T13:09:01.244Z,103075.56
2023-02-13T13:11:44.279Z,103075.19
2023-02-13T13:14:15.692Z,103069.81
2023-02-13T13:16:48.422Z,103069.28
2023-02-13T13:19:25.458Z,103068.47
2023-02-13T13:21:56.169Z,103053.81
2023-02-13T13:24:30.320Z,103044.63
2023-02-13T13:26:59.817Z,103054.47
2023-02-13T13:29:31.668Z,103054.41
2023-02-13T13:32:02.341Z,103051.84
2023-02-13T13:34:31.791Z,103054.94
2023-02-13T13:37:02.380Z,103057.25
2023-02-13T13:39:38.516Z,103059.97
2023-02-13T13:42:11.524Z,103032.50
2023-02-13T13:44:52.739Z,103050.59
2023-02-13T13:47:27.951Z,103043.28
2023-02-13T13:49:56.306Z,103039.25
2023-02-13T13:52:26.713Z,103045.41
2023-02-13T13:55:02.575Z,103027.50
2023-02-13T13:58:01.806Z,103018.72
2023-02-13T14:00:30.876Z,103041.66
2023-02-13T14:03:32.161Z,103033.28
2023-02-13T14:06:08.093Z,103012.81
2023-02-13T14:08:58.592Z,103035.69
2023-02-13T14:11:28.731Z,103028.38
2023-02-13T14:13:58.397Z,103028.22
2023-02-13T14:16:39.767Z,103025.16
2023-02-13T14:19:07.987Z,103016.09
2023-02-13T14:21:35.932Z,103013.03
2023-02-13T14:24:06.388Z,103010.59
2023-02-13T14:26:38.382Z,103004.19
2023-02-13T14:29:23.748Z,102991.00
2023-02-13T14:32:05.799Z,102964.06
2023-02-13T14:34:34.621Z,102987.06
2023-02-13T14:37:18.909Z,102960.03
2023-02-13T14:39:47.056Z,102985.44
2023-02-13T14:42:24.579Z,102977.28
2023-02-13T14:44:54.514Z,102964.53
2023-02-13T14:47:23.976Z,102971.78
2023-02-13T14:49:51.985Z,102967.47
2023-02-13T14:52:22.067Z,102961.38
2023-02-13T14:54:50.776Z,102943.63
2023-02-13T14:57:19.480Z,102946.16
2023-02-13T14:59:48.366Z,102987.47
2023-02-13T15:02:23.653Z,102972.25
2023-02-13T15:04:55.021Z,102971.91
2023-02-13T15:07:24.733Z,102971.88
2023-02-13T15:09:54.419Z,102966.06
2023-02-13T15:12:26.991Z,102973.69
2023-02-13T15:14:54.942Z,102982.88
2023-02-13T15:17:27.128Z,102977.72
2023-02-13T15:19:55.657Z,102982.44
2023-02-13T15:22:28.770Z,102960.38
2023-02-13T15:24:56.679Z,102967.69
2023-02-13T15:27:27.054Z,102972.50
2023-02-13T15:29:59.489Z,102982.91
2023-02-13T15:32:33.940Z,102982.66
2023-02-13T15:35:01.991Z,102983.69
2023-02-13T15:37:31.147Z,102986.91
2023-02-13T15:40:24.029Z,102989.16
2023-02-13T15:42:52.158Z,102986.63
2023-02-13T15:45:20.171Z,102976.84
2023-02-13T15:47:49.488Z,102995.47
2023-02-13T15:50:25.289Z,102978.22
2023-02-13T15:52:55.930Z,102970.84
2023-02-13T15:55:27.084Z,102930.59
2023-02-13T15:57:55.914Z,102959.16
2023-02-13T16:00:26.157Z,102968.22
2023-02-13T16:03:00.712Z,102945.66
2023-02-13T16:05:39.382Z,102946.78
2023-02-13T16:08:35.424Z,102974.63
2023-02-13T16:11:25.206Z,102969.69
2023-02-13T16:14:01.331Z,102960.19
2023-02-13T16:16:29.528Z,102943.53
2023-02-13T16:18:58.847Z,102973.75
2023-02-13T16:21:27.484Z,102977.47
2023-02-13T16:23:58.006Z,102974.97
2023-02-13T16:26:25.880Z,102971.50
2023-02-13T16:28:55.830Z,102953.09
2023-02-13T16:31:27.891Z,102962.84
2023-02-13T16:33:56.024Z,102960.38
2023-02-13T16:36:31.463Z,102948.22
2023-02-13T16:39:02.000Z,102946.66
2023-02-13T16:41:30.959Z,102959.13
2023-02-13T16:43:58.867Z,102967.19
2023-02-13T16:46:29.689Z,102953.97
2023-02-13T16:49:24.552Z,102961.13
2023-02-13T16:51:56.645Z,102962.28
2023-02-13T16:54:28.208Z,102926.22
2023-02-13T16:56:57.114Z,102974.78
2023-02-13T16:59:29.876Z,102970.44
2023-02-13T17:02:28.102Z,102983.91
2023-02-13T17:04:56.865Z,102977.75
2023-02-13T17:07:27.466Z,102976.91
2023-02-13T17:09:57.224Z,102986.75
2023-02-13T17:12:25.090Z,102998.44
2023-02-13T17:14:53.018Z,102999.31
2023-02-13T17:17:22.262Z,102998.50
2023-02-13T17:19:50.414Z,102994.16
2023-02-13T17:22:35.968Z,102997.78
2023-02-13T17:25:05.254Z,102993.41
2023-02-13T17:27:33.174Z,102992.59
2023-02-13T17:30:01.628Z,103002.41
2023-02-13T17:32:30.032Z,103010.44
2023-02-13T17:34:57.998Z,103010.50
2023-02-13T17:37:26.580Z,103005.25
2023-02-13T17:39:55.983Z,103012.41
2023-02-13T17:42:25.404Z,103013.31
2023-02-13T17:44:53.447Z,103014.25
2023-02-13T17:47:21.527Z,103016.94
2023-02-13T17:49:49.976Z,103013.44
2023-02-13T17:52:19.453Z,103022.31
2023-02-13T17:54:47.298Z,103020.56
2023-02-13T17:57:17.796Z,103016.16
2023-02-13T17:59:46.301Z,103022.38
2023-02-13T18:02:15.895Z,103026.81
2023-02-13T18:04:43.911Z,103028.66
2023-02-13T18:07:12.618Z,103024.22
2023-02-13T18:09:41.145Z,103018.06
2023-02-13T18:12:10.188Z,103024.28
2023-02-13T18:14:39.505Z,103021.59
2023-02-13T18:17:07.582Z,103035.78
2023-02-13T18:19:35.481Z,103024.28
2023-02-13T18:22:03.393Z,103028.69
2023-02-13T18:24:31.757Z,103042.88
2023-02-13T18:26:59.947Z,103036.72
2023-02-13T18:29:27.894Z,103033.16
2023-02-13T18:31:57.943Z,103012.88
2023-02-13T18:34:26.056Z,103029.66
2023-02-13T18:36:53.957Z,103031.44
2023-02-13T18:39:21.893Z,103031.44
2023-02-13T18:41:49.968Z,103030.56
2023-02-13T18:44:28.104Z,103038.56
2023-02-13T18:46:58.114Z,103030.59
2023-02-13T18:49:25.976Z,103028.81
2023-02-13T18:51:53.884Z,103029.72
2023-02-13T18:54:22.308Z,103025.31
2023-02-13T18:56:50.181Z,103024.41
2023-02-13T18:59:19.198Z,103028.84
2023-02-13T19:01:47.179Z,103040.34
2023-02-13T19:04:16.899Z,103035.94
2023-02-13T19:06:45.167Z,103006.78
2023-02-13T19:09:13.250Z,103040.34
2023-02-13T19:11:41.126Z,103045.66
2023-02-13T19:14:09.010Z,103043.03
2023-02-13T19:16:37.006Z,103044.78
2023-02-13T19:19:06.251Z,103047.44
2023-02-13T19:21:36.597Z,103043.91
2023-02-13T19:24:04.824Z,103046.56
2023-02-13T19:26:32.822Z,103048.31
2023-02-13T19:29:00.758Z,103047.47
2023-02-13T19:31:32.646Z,103055.44
2023-02-13T19:34:01.093Z,103060.72
2023-02-13T19:36:30.108Z,103042.13
2023-02-13T19:39:00.297Z,103054.53
2023-02-13T19:41:29.049Z,103057.19
2023-02-13T19:43:56.934Z,103055.44
2023-02-13T19:46:25.799Z,103066.03
2023-02-13T19:48:54.875Z,103057.19
2023-02-13T19:51:30.069Z,103061.59
2023-02-13T19:54:00.273Z,103066.03
2023-02-13T19:56:28.439Z,103069.56
2023-02-13T19:58:56.493Z,103074.00
2023-02-13T20:01:25.539Z,103077.53
2023-02-13T20:03:53.487Z,103075.75
2023-02-13T20:06:22.785Z,103074.88
2023-02-13T20:08:51.223Z,103088.13
2023-02-13T20:11:21.499Z,103079.28
2023-02-13T20:13:52.125Z,103079.28
2023-02-13T20:16:20.444Z,103068.66
2023-02-13T20:18:48.490Z,103061.56
2023-02-13T20:21:17.344Z,103065.13
2023-02-13T20:23:48.800Z,103059.81
2023-02-13T20:26:17.363Z,103048.31
2023-02-13T20:28:47.004Z,103054.50
2023-02-13T20:31:15.973Z,103048.31
2023-02-13T20:33:48.766Z,103035.94
2023-02-13T20:36:18.123Z,103028.88
2023-02-13T20:38:46.023Z,103037.69
2023-02-13T20:41:15.092Z,103031.53
2023-02-13T20:43:43.034Z,103043.91
2023-02-13T20:46:13.433Z,103033.28
2023-02-13T20:48:41.837Z,103028.88
2023-02-13T20:51:11.559Z,103040.38
2023-02-13T20:53:39.521Z,103046.56
2023-02-13T20:56:10.651Z,103026.22
2023-02-13T20:58:38.583Z,103035.09
2023-02-13T21:01:13.949Z,103046.56
2023-02-13T21:03:42.173Z,103043.03
2023-02-13T21:06:10.656Z,103029.78
2023-02-13T21:08:38.625Z,103020.94
2023-02-13T21:11:07.405Z,103009.44
2023-02-13T21:13:35.603Z,102996.22
2023-02-13T21:16:08.478Z,103024.50
2023-02-13T21:18:37.921Z,103019.16
2023-02-13T21:21:06.128Z,103045.69
2023-02-13T21:23:34.271Z,103050.97
2023-02-13T21:26:03.118Z,103039.47
2023-02-13T21:28:31.076Z,103044.78
2023-02-13T21:30:59.294Z,103043.91
2023-02-13T21:33:27.474Z,103045.69
2023-02-13T21:36:02.487Z,103050.94
2023-02-13T21:38:30.383Z,103045.66
2023-02-13T21:41:05.264Z,103051.84
2023-02-13T21:43:37.563Z,103066.84
2023-02-13T21:46:09.692Z,103065.09
2023-02-13T21:48:37.694Z,103062.44
2023-02-13T21:51:10.725Z,103059.78
2023-02-13T21:53:38.732Z,103063.31
2023-02-13T21:56:07.844Z,103064.19
2023-02-13T21:58:35.844Z,103050.06
2023-02-13T22:01:04.293Z,103054.50
2023-02-13T22:03:32.224Z,103043.91
2023-02-13T22:06:00.144Z,103047.41
2023-02-13T22:08:29.459Z,103059.78
2023-02-13T22:10:58.383Z,103065.97
2023-02-13T22:13:26.677Z,103067.75
2023-02-13T22:16:00.585Z,103064.19
2023-02-13T22:18:28.515Z,103070.38
2023-02-13T22:20:56.613Z,103073.06
2023-02-13T22:23:24.595Z,103059.81
2023-02-13T22:25:53.847Z,103057.16
2023-02-13T22:28:21.702Z,103044.81
2023-02-13T22:30:49.727Z,103046.56
2023-02-13T22:33:17.638Z,103064.25
2023-02-13T22:35:45.516Z,103061.59
2023-02-13T22:38:13.417Z,103068.69
2023-02-13T22:40:41.329Z,103058.97
2023-02-13T22:43:10.560Z,103058.09
2023-02-13T22:45:39.981Z,103056.31
2023-02-13T22:48:07.868Z,103045.69
2023-02-13T22:50:35.669Z,103034.19
2023-02-13T22:53:03.553Z,103031.56
2023-02-13T22:55:31.475Z,103035.06
2023-02-13T22:57:59.307Z,103048.34
2023-02-13T23:00:28.663Z,103050.06
2023-02-13T23:02:56.530Z,103054.50
2023-02-13T23:05:24.430Z,103046.53
2023-02-13T23:07:52.302Z,103042.13
2023-02-13T23:10:20.388Z,103042.97
2023-02-13T23:12:47.253Z,103035.94
2023-02-13T23:15:15.451Z,103042.09
2023-02-13T23:18:02.224Z,103042.13
2023-02-13T23:20:30.092Z,103049.19
2023-02-13T23:22:58.059Z,103047.41
2023-02-13T23:25:26.009Z,103040.34
2023-02-13T23:27:56.724Z,103035.94
2023-02-13T23:30:24.838Z,103034.09
2023-02-13T23:32:54.138Z,103032.34
2023-02-13T23:35:22.001Z,103031.44
2023-02-13T23:37:49.847Z,103020.84
2023-02-13T23:40:17.882Z,103019.13
2023-02-13T23:42:45.777Z,103024.44
2023-02-13T23:45:13.640Z,103016.47
2023-02-13T23:47:41.572Z,103015.63
2023-02-13T23:50:11.351Z,103016.50
2023-02-13T23:52:39.261Z,103025.38
2023-02-13T23:55:07.524Z,103016.50
2023-02-13T23:57:35.575Z,103012.97
